createdAt,value
2018-12-26T00:03:49.316Z,7.03
2018-12-26T00:06:15.075Z,7.40
2018-12-26T00:08:40.861Z,7.87
2018-12-26T00:11:06.620Z,7.73
2018-12-26T00:13:32.424Z,8.93
2018-12-26T00:16:39.882Z,8.40
2018-12-26T00:19:05.725Z,8.60
2018-12-26T00:21:31.483Z,8.90
2018-12-26T00:23:57.286Z,8.83
2018-12-26T00:26:23.018Z,9.37
2018-12-26T00:28:48.773Z,9.30
2018-12-26T00:31:14.541Z,9.67
2018-12-26T00:33:40.304Z,9.00
2018-12-26T00:36:06.087Z,8.73
2018-12-26T00:38:31.841Z,7.77
2018-12-26T00:40:57.612Z,7.60
2018-12-26T00:43:23.370Z,7.90
2018-12-26T00:45:49.139Z,6.20
2018-12-26T00:48:14.963Z,6.77
2018-12-26T00:50:40.677Z,5.87
2018-12-26T00:53:06.440Z,5.97
2018-12-26T00:55:32.229Z,5.30
2018-12-26T01:01:05.192Z,5.27
2018-12-26T01:03:30.943Z,5.20
2018-12-26T01:05:56.712Z,5.93
2018-12-26T01:08:22.461Z,4.93
2018-12-26T01:10:48.230Z,5.13
2018-12-26T01:13:13.981Z,5.40
2018-12-26T01:15:39.756Z,5.37
2018-12-26T01:18:05.513Z,6.13
2018-12-26T01:20:31.288Z,6.30
2018-12-26T01:22:57.043Z,6.03
2018-12-26T01:25:22.800Z,6.10
2018-12-26T01:27:48.569Z,5.63
2018-12-26T01:30:14.330Z,5.43
2018-12-26T01:32:40.106Z,6.07
2018-12-26T01:35:05.874Z,5.93
2018-12-26T01:37:31.652Z,6.50
2018-12-26T01:39:57.411Z,6.30
2018-12-26T01:42:23.195Z,6.90
2018-12-26T01:45:08.851Z,6.77
2018-12-26T01:47:34.627Z,7.17
2018-12-26T01:50:00.382Z,6.87
2018-12-26T01:52:26.151Z,7.40
2018-12-26T01:54:51.933Z,7.00
2018-12-26T01:57:17.709Z,7.43
2018-12-26T01:59:43.458Z,7.53
2018-12-26T02:02:09.222Z,7.50
2018-12-26T02:04:34.984Z,7.23
2018-12-26T02:07:00.757Z,7.80
2018-12-26T02:09:26.516Z,6.80
2018-12-26T02:11:52.312Z,7.57
2018-12-26T02:14:18.234Z,7.70
2018-12-26T02:16:43.946Z,7.60
2018-12-26T02:19:09.693Z,7.43
2018-12-26T02:21:35.451Z,6.90
2018-12-26T02:24:01.230Z,7.70
2018-12-26T02:26:26.990Z,7.90
2018-12-26T02:28:52.792Z,7.43
2018-12-26T02:31:18.553Z,7.10
2018-12-26T02:33:44.352Z,7.67
2018-12-26T02:36:10.095Z,7.73
2018-12-26T02:38:35.863Z,7.87
2018-12-26T02:41:01.620Z,8.03
2018-12-26T02:43:27.395Z,7.67
2018-12-26T02:45:53.158Z,7.97
2018-12-26T02:48:18.930Z,7.53
2018-12-26T02:50:44.683Z,7.47
2018-12-26T02:53:10.449Z,7.50
2018-12-26T02:55:36.241Z,7.77
2018-12-26T02:58:02.019Z,7.90
2018-12-26T03:00:27.771Z,7.70
2018-12-26T03:02:53.536Z,7.30
2018-12-26T03:05:19.301Z,8.07
2018-12-26T03:07:45.076Z,7.67
2018-12-26T03:10:10.836Z,8.27
2018-12-26T03:12:36.602Z,8.07
2018-12-26T03:15:44.038Z,8.97
2018-12-26T03:18:09.803Z,9.67
2018-12-26T03:20:35.566Z,9.37
2018-12-26T03:23:01.350Z,9.10
2018-12-26T03:25:27.108Z,9.90
2018-12-26T03:27:52.897Z,8.40
2018-12-26T03:30:38.540Z,8.60
2018-12-26T03:33:04.332Z,9.63
2018-12-26T03:35:30.075Z,10.20
2018-12-26T03:37:55.852Z,9.20
2018-12-26T03:40:21.621Z,9.33
2018-12-26T03:42:47.376Z,9.87
2018-12-26T03:45:13.170Z,9.10
2018-12-26T03:48:20.605Z,9.30
2018-12-26T03:50:46.368Z,9.00
2018-12-26T03:53:12.169Z,9.53
2018-12-26T03:55:37.948Z,9.43
2018-12-26T03:58:03.694Z,9.83
2018-12-26T04:00:29.476Z,9.30
2018-12-26T04:02:55.237Z,9.73
2018-12-26T04:05:21.005Z,9.50
2018-12-26T04:07:46.881Z,10.00
2018-12-26T04:10:12.868Z,9.13
2018-12-26T04:12:38.613Z,9.87
2018-12-26T04:15:04.492Z,11.00
2018-12-26T04:17:30.244Z,11.17
2018-12-26T04:19:56.016Z,10.20
2018-12-26T04:22:21.923Z,10.73
2018-12-26T04:24:47.759Z,11.60
2018-12-26T04:27:15.629Z,12.03
2018-12-26T04:29:41.194Z,11.67
2018-12-26T04:32:06.949Z,12.37
2018-12-26T04:34:32.717Z,12.57
2018-12-26T04:36:58.481Z,14.10
2018-12-26T04:39:24.265Z,14.50
2018-12-26T04:41:50.016Z,14.63
2018-12-26T04:44:15.808Z,15.70
2018-12-26T04:46:41.564Z,15.57
2018-12-26T04:49:07.329Z,15.10
2018-12-26T04:51:33.113Z,14.90
2018-12-26T04:53:58.861Z,15.60
2018-12-26T04:56:24.654Z,14.10
2018-12-26T04:58:50.415Z,14.10
2018-12-26T05:01:16.182Z,12.77
2018-12-26T05:03:41.953Z,13.23
2018-12-26T05:06:07.707Z,12.17
2018-12-26T05:08:33.490Z,13.40
2018-12-26T05:10:59.257Z,13.13
2018-12-26T05:13:25.019Z,12.80
2018-12-26T05:15:50.781Z,11.37
2018-12-26T05:18:16.547Z,13.13
2018-12-26T05:20:42.316Z,13.70
2018-12-26T05:23:08.070Z,13.10
2018-12-26T05:25:33.848Z,12.67
2018-12-26T05:27:59.604Z,12.90
2018-12-26T05:30:25.369Z,13.27
2018-12-26T05:32:51.135Z,15.40
2018-12-26T05:35:16.894Z,16.30
2018-12-26T05:37:42.659Z,15.63
2018-12-26T05:40:08.434Z,16.00
2018-12-26T05:42:34.217Z,14.37
2018-12-26T05:44:59.980Z,15.40
2018-12-26T05:47:25.750Z,15.17
2018-12-26T05:49:51.514Z,14.27
2018-12-26T05:52:17.296Z,16.13
2018-12-26T05:54:43.057Z,15.07
2018-12-26T05:57:08.840Z,16.47
2018-12-26T05:59:34.595Z,16.53
2018-12-26T06:02:00.366Z,17.80
2018-12-26T06:04:26.130Z,18.00
2018-12-26T06:06:51.921Z,18.50
2018-12-26T06:09:17.667Z,18.60
2018-12-26T06:11:43.443Z,17.57
2018-12-26T06:14:09.200Z,18.43
2018-12-26T06:16:34.980Z,21.00
2018-12-26T06:19:00.734Z,16.63
2018-12-26T06:21:26.494Z,16.40
2018-12-26T06:23:52.261Z,16.10
2018-12-26T06:26:18.028Z,17.57
2018-12-26T06:28:43.810Z,18.53
2018-12-26T06:31:09.574Z,19.77
2018-12-26T06:33:35.351Z,17.93
2018-12-26T06:36:01.109Z,19.47
2018-12-26T06:38:26.883Z,18.87
2018-12-26T06:40:52.644Z,18.97
2018-12-26T06:43:18.427Z,20.23
2018-12-26T06:45:44.198Z,20.57
2018-12-26T06:48:09.999Z,20.63
2018-12-26T06:50:35.759Z,20.83
2018-12-26T06:53:01.522Z,19.63
2018-12-26T06:55:27.362Z,21.83
2018-12-26T06:58:00.012Z,22.73
2018-12-26T07:00:20.741Z,21.43
2018-12-26T07:02:46.506Z,19.87
2018-12-26T07:05:12.269Z,20.77
2018-12-26T07:07:38.037Z,19.20
2018-12-26T07:10:45.490Z,19.13
2018-12-26T07:13:11.244Z,19.40
2018-12-26T07:15:37.009Z,17.73
2018-12-26T07:18:02.779Z,17.43
2018-12-26T07:20:28.550Z,15.53
2018-12-26T07:22:54.311Z,16.27
2018-12-26T07:25:20.099Z,16.83
2018-12-26T07:27:45.859Z,14.40
2018-12-26T07:30:11.626Z,16.00
2018-12-26T07:32:37.393Z,16.17
2018-12-26T07:35:03.172Z,15.97
2018-12-26T07:37:28.922Z,14.70
2018-12-26T07:39:54.703Z,13.10
2018-12-26T07:42:20.467Z,13.50
2018-12-26T07:44:46.229Z,14.20
2018-12-26T07:47:11.991Z,15.13
2018-12-26T07:49:37.768Z,15.57
2018-12-26T07:52:03.524Z,14.30
2018-12-26T07:57:23.236Z,15.83
2018-12-26T07:59:49.007Z,17.70
2018-12-26T08:02:14.761Z,15.97
2018-12-26T08:04:40.505Z,16.10
2018-12-26T08:07:06.269Z,17.10
2018-12-26T08:09:32.021Z,12.90
2018-12-26T08:11:57.786Z,13.47
2018-12-26T08:14:23.542Z,12.97
2018-12-26T08:16:49.312Z,12.50
2018-12-26T08:19:15.083Z,11.30
2018-12-26T08:21:40.866Z,11.37
2018-12-26T08:24:06.643Z,10.73
2018-12-26T08:26:32.408Z,11.37
2018-12-26T08:28:58.179Z,11.93
2018-12-26T08:31:23.959Z,9.70
2018-12-26T08:33:49.720Z,10.07
2018-12-26T08:36:15.495Z,7.70
2018-12-26T08:38:41.259Z,7.30
2018-12-26T08:41:07.038Z,7.03
2018-12-26T08:43:32.793Z,7.03
2018-12-26T08:45:58.569Z,6.63
2018-12-26T08:48:24.319Z,7.20
2018-12-26T08:50:50.090Z,6.77
2018-12-26T08:53:15.847Z,7.13
2018-12-26T08:55:41.622Z,6.70
2018-12-26T08:58:07.395Z,6.50
2018-12-26T09:00:33.151Z,6.30
2018-12-26T09:02:58.922Z,5.83
2018-12-26T09:05:24.681Z,7.00
2018-12-26T09:07:50.458Z,6.97
2018-12-26T09:10:16.219Z,6.63
2018-12-26T09:12:41.995Z,5.40
2018-12-26T09:15:07.755Z,5.50
2018-12-26T09:17:33.531Z,5.67
2018-12-26T09:19:59.285Z,5.87
2018-12-26T09:22:25.065Z,6.00
2018-12-26T09:24:50.814Z,6.37
2018-12-26T09:27:16.588Z,6.00
2018-12-26T09:29:42.345Z,5.63
2018-12-26T09:32:08.120Z,5.97
2018-12-26T09:34:33.881Z,6.77
2018-12-26T09:36:59.649Z,5.97
2018-12-26T09:39:25.412Z,6.53
2018-12-26T09:41:51.183Z,6.97
2018-12-26T09:44:16.954Z,6.50
2018-12-26T09:46:42.780Z,6.50
2018-12-26T09:49:08.541Z,6.83
2018-12-26T09:51:34.310Z,6.40
2018-12-26T09:54:00.100Z,6.70
2018-12-26T09:56:39.248Z,6.37
2018-12-26T09:59:05.019Z,6.40
2018-12-26T10:01:30.779Z,7.00
2018-12-26T10:03:56.543Z,7.00
2018-12-26T10:06:22.344Z,6.47
2018-12-26T10:08:48.115Z,8.97
2018-12-26T10:11:13.870Z,7.27
2018-12-26T10:13:39.991Z,7.67
2018-12-26T10:16:07.452Z,8.17
2018-12-26T10:18:33.222Z,7.40
2018-12-26T10:20:58.990Z,6.77
2018-12-26T10:23:24.773Z,7.53
2018-12-26T10:25:50.537Z,6.07
2018-12-26T10:28:16.309Z,7.07
2018-12-26T10:30:42.073Z,6.83
2018-12-26T10:33:07.850Z,7.03
2018-12-26T10:35:33.603Z,6.20
2018-12-26T10:37:59.373Z,5.60
2018-12-26T10:40:25.147Z,5.43
2018-12-26T10:42:50.938Z,5.50
2018-12-26T10:45:36.592Z,5.60
2018-12-26T10:48:02.390Z,4.97
2018-12-26T10:50:28.153Z,4.53
2018-12-26T10:52:53.929Z,5.30
2018-12-26T10:55:19.680Z,4.87
2018-12-26T10:57:45.502Z,4.47
2018-12-26T11:00:11.263Z,5.30
2018-12-26T11:02:37.033Z,4.30
2018-12-26T11:05:44.535Z,4.43
2018-12-26T11:08:10.368Z,4.90
2018-12-26T11:10:36.159Z,4.13
2018-12-26T11:13:01.919Z,5.13
2018-12-26T11:15:27.686Z,5.13
2018-12-26T11:21:06.577Z,6.10
2018-12-26T11:23:32.345Z,5.00
2018-12-26T11:25:58.110Z,5.57
2018-12-26T11:28:23.889Z,5.13
2018-12-26T11:30:49.652Z,5.60
2018-12-26T11:33:15.402Z,6.17
2018-12-26T11:35:41.172Z,5.70
2018-12-26T11:38:06.934Z,5.87
2018-12-26T11:40:32.719Z,6.37
2018-12-26T11:42:58.489Z,6.80
2018-12-26T11:45:24.264Z,6.63
2018-12-26T11:47:50.019Z,6.20
2018-12-26T11:50:15.790Z,6.30
2018-12-26T11:52:41.548Z,6.40
2018-12-26T11:55:07.313Z,5.60
2018-12-26T11:57:33.078Z,6.17
2018-12-26T11:59:58.849Z,6.03
2018-12-26T12:02:24.606Z,6.63
2018-12-26T12:05:32.050Z,6.70
2018-12-26T12:07:57.805Z,7.00
2018-12-26T12:10:23.571Z,6.93
2018-12-26T12:12:49.336Z,6.90
2018-12-26T12:15:15.136Z,7.70
2018-12-26T12:17:40.890Z,7.67
2018-12-26T12:20:48.338Z,8.00
2018-12-26T12:23:14.094Z,7.13
2018-12-26T12:25:39.939Z,7.27
2018-12-26T12:28:05.735Z,6.40
2018-12-26T12:30:31.483Z,6.50
2018-12-26T12:32:57.250Z,6.60
2018-12-26T12:35:23.005Z,7.13
2018-12-26T12:37:48.772Z,6.77
2018-12-26T12:40:14.533Z,6.87
2018-12-26T12:42:40.424Z,6.50
2018-12-26T12:45:47.824Z,6.63
2018-12-26T12:48:13.594Z,7.03
2018-12-26T12:50:39.351Z,6.93
2018-12-26T12:53:05.144Z,7.20
2018-12-26T12:55:30.876Z,7.37
2018-12-26T12:57:56.660Z,7.07
2018-12-26T13:00:22.413Z,7.03
2018-12-26T13:02:48.181Z,6.57
2018-12-26T13:05:13.943Z,6.67
2018-12-26T13:07:39.714Z,7.00
2018-12-26T13:10:05.467Z,6.67
2018-12-26T13:12:31.236Z,6.80
2018-12-26T13:14:56.997Z,7.97
2018-12-26T13:17:22.865Z,7.60
2018-12-26T13:19:48.626Z,7.83
2018-12-26T13:22:14.382Z,8.07
2018-12-26T13:24:40.153Z,8.63
2018-12-26T13:27:05.914Z,9.93
2018-12-26T13:29:31.681Z,10.37
2018-12-26T13:31:57.445Z,10.83
2018-12-26T13:34:23.206Z,11.27
2018-12-26T13:36:48.958Z,10.47
2018-12-26T13:39:14.716Z,11.63
2018-12-26T13:41:40.467Z,11.83
2018-12-26T13:44:06.230Z,12.50
2018-12-26T13:46:33.903Z,13.13
2018-12-26T13:48:59.647Z,11.63
2018-12-26T13:51:25.406Z,12.17
2018-12-26T13:53:51.170Z,12.17
2018-12-26T13:56:16.938Z,13.43
2018-12-26T13:58:42.747Z,12.47
2018-12-26T14:01:08.472Z,11.93
2018-12-26T14:03:34.250Z,12.00
2018-12-26T14:06:00.010Z,11.57
2018-12-26T14:08:25.762Z,12.97
2018-12-26T14:10:51.532Z,12.00
2018-12-26T14:13:17.293Z,12.43
2018-12-26T14:15:43.057Z,12.43
2018-12-26T14:18:08.808Z,13.67
2018-12-26T14:20:34.574Z,13.03
2018-12-26T14:23:00.331Z,12.37
2018-12-26T14:25:26.098Z,13.87
2018-12-26T14:27:51.852Z,14.20
2018-12-26T14:30:17.612Z,14.53
2018-12-26T14:32:43.360Z,14.83
2018-12-26T14:35:09.129Z,14.73
2018-12-26T14:37:34.892Z,16.63
2018-12-26T14:40:00.653Z,18.07
2018-12-26T14:42:26.413Z,17.53
2018-12-26T14:44:52.189Z,17.73
2018-12-26T14:47:17.946Z,18.23
2018-12-26T14:49:43.702Z,17.50
2018-12-26T14:52:09.477Z,18.37
2018-12-26T14:54:35.238Z,17.20
2018-12-26T14:57:01.015Z,18.77
2018-12-26T14:59:26.761Z,18.50
2018-12-26T15:01:52.524Z,18.67
2018-12-26T15:04:18.272Z,18.87
2018-12-26T15:06:44.037Z,18.83
2018-12-26T15:09:09.795Z,19.47
2018-12-26T15:11:35.553Z,20.07
2018-12-26T15:14:01.300Z,20.53
2018-12-26T15:16:27.066Z,18.63
2018-12-26T15:18:52.822Z,19.17
2018-12-26T15:21:18.690Z,18.43
2018-12-26T15:23:44.450Z,19.93
2018-12-26T15:26:10.212Z,17.37
2018-12-26T15:28:35.968Z,18.53
2018-12-26T15:31:01.727Z,18.20
2018-12-26T15:33:27.480Z,18.27
2018-12-26T15:35:53.229Z,17.97
2018-12-26T15:38:18.995Z,18.07
2018-12-26T15:40:44.747Z,17.50
2018-12-26T15:43:10.511Z,17.73
2018-12-26T15:45:36.260Z,16.17
2018-12-26T15:48:03.339Z,16.50
2018-12-26T15:50:29.682Z,16.50
2018-12-26T15:52:55.444Z,17.00
2018-12-26T15:55:21.206Z,16.00
2018-12-26T15:57:46.993Z,16.83
2018-12-26T16:00:12.747Z,15.80
2018-12-26T16:02:38.512Z,15.53
2018-12-26T16:05:45.952Z,16.00
2018-12-26T16:08:11.722Z,15.97
2018-12-26T16:10:37.485Z,16.70
2018-12-26T16:13:03.246Z,17.93
2018-12-26T16:15:28.997Z,16.67
2018-12-26T16:17:54.762Z,16.57
2018-12-26T16:20:20.509Z,17.40
2018-12-26T16:22:46.272Z,16.13
2018-12-26T16:25:12.022Z,18.70
2018-12-26T16:27:37.791Z,18.50
2018-12-26T16:30:46.248Z,18.63
2018-12-26T16:33:12.898Z,18.60
2018-12-26T16:35:38.656Z,19.53
2018-12-26T16:38:04.429Z,19.43
2018-12-26T16:40:30.184Z,18.77
2018-12-26T16:42:55.949Z,20.07
2018-12-26T16:45:21.726Z,21.03
2018-12-26T16:47:47.483Z,21.87
2018-12-26T16:50:13.350Z,21.17
2018-12-26T16:52:39.108Z,22.00
2018-12-26T16:55:46.551Z,21.10
2018-12-26T16:58:12.352Z,21.20
2018-12-26T17:00:38.106Z,22.50
2018-12-26T17:03:03.858Z,21.23
2018-12-26T17:05:29.632Z,20.53
2018-12-26T17:07:55.386Z,21.80
2018-12-26T17:12:59.534Z,22.83
2018-12-26T17:15:25.402Z,22.70
2018-12-26T17:17:51.160Z,22.27
2018-12-26T17:20:16.931Z,22.57
2018-12-26T17:22:42.693Z,22.37
2018-12-26T17:25:08.471Z,21.13
2018-12-26T17:27:34.216Z,21.53
2018-12-26T17:29:59.981Z,23.90
2018-12-26T17:32:25.745Z,21.27
2018-12-26T17:34:51.514Z,22.77
2018-12-26T17:37:17.293Z,22.87
2018-12-26T17:39:43.041Z,22.50
2018-12-26T17:42:08.790Z,22.33
2018-12-26T17:44:34.535Z,23.03
2018-12-26T17:47:00.305Z,22.40
2018-12-26T17:49:26.068Z,23.67
2018-12-26T17:51:52.720Z,22.40
2018-12-26T17:55:01.203Z,22.73
2018-12-26T17:57:26.965Z,21.77
2018-12-26T18:00:34.411Z,22.17
2018-12-26T18:03:00.165Z,21.77
2018-12-26T18:05:25.920Z,20.47
2018-12-26T18:07:51.669Z,19.03
2018-12-26T18:10:17.422Z,19.53
2018-12-26T18:12:43.192Z,19.17
2018-12-26T18:15:08.940Z,18.63
2018-12-26T18:17:34.703Z,18.20
2018-12-26T18:20:00.471Z,15.73
2018-12-26T18:22:26.320Z,15.83
2018-12-26T18:24:52.064Z,16.70
2018-12-26T18:27:17.831Z,14.57
2018-12-26T18:29:43.588Z,15.03
2018-12-26T18:32:09.355Z,15.13
2018-12-26T18:34:35.128Z,15.10
2018-12-26T18:37:00.866Z,13.83
2018-12-26T18:39:26.612Z,14.70
2018-12-26T18:41:52.378Z,12.73
2018-12-26T18:44:18.128Z,11.63
2018-12-26T18:46:43.886Z,10.30
2018-12-26T18:49:09.674Z,10.03
2018-12-26T18:51:55.328Z,9.70
2018-12-26T18:54:21.081Z,7.23
2018-12-26T18:56:46.864Z,7.47
2018-12-26T18:59:12.630Z,6.97
2018-12-26T19:01:38.398Z,6.57
2018-12-26T19:04:04.174Z,7.53
2018-12-26T19:06:29.926Z,7.00
2018-12-26T19:08:55.691Z,7.83
2018-12-26T19:11:21.444Z,7.40
2018-12-26T19:13:47.322Z,7.80
2018-12-26T19:16:13.071Z,8.40
2018-12-26T19:18:38.837Z,8.07
2018-12-26T19:21:04.602Z,7.63
2018-12-26T19:23:30.388Z,7.80
2018-12-26T19:25:56.147Z,7.73
2018-12-26T19:28:21.917Z,8.07
2018-12-26T19:30:47.674Z,6.97
2018-12-26T19:33:13.442Z,8.13
2018-12-26T19:35:39.200Z,7.97
2018-12-26T19:38:04.974Z,8.73
2018-12-26T19:40:30.735Z,9.07
2018-12-26T19:42:56.598Z,9.20
2018-12-26T19:45:22.369Z,9.03
2018-12-26T19:47:48.129Z,8.83
2018-12-26T19:50:13.905Z,8.53
2018-12-26T19:52:39.659Z,10.43
2018-12-26T19:55:47.111Z,10.50
2018-12-26T19:58:12.876Z,9.90
2018-12-26T20:00:38.646Z,11.07
2018-12-26T20:03:04.400Z,10.67
2018-12-26T20:05:30.170Z,10.27
2018-12-26T20:07:55.931Z,8.80
2018-12-26T20:10:21.698Z,10.30
2018-12-26T20:12:47.461Z,10.10
2018-12-26T20:15:13.221Z,10.17
2018-12-26T20:17:38.982Z,11.17
2018-12-26T20:20:46.430Z,9.47
2018-12-26T20:23:12.182Z,9.33
2018-12-26T20:25:37.944Z,9.20
2018-12-26T20:28:03.709Z,7.87
2018-12-26T20:30:29.490Z,8.73
2018-12-26T20:32:55.241Z,9.40
2018-12-26T20:35:21.007Z,9.20
2018-12-26T20:37:46.777Z,8.17
2018-12-26T20:40:12.550Z,8.10
2018-12-26T20:42:38.309Z,8.40
2018-12-26T20:48:17.528Z,8.53
2018-12-26T20:50:43.302Z,8.40
2018-12-26T20:53:09.077Z,7.30
2018-12-26T20:55:34.841Z,6.80
2018-12-26T20:58:00.605Z,7.17
2018-12-26T21:00:26.381Z,7.17
2018-12-26T21:02:52.137Z,7.03
2018-12-26T21:05:17.903Z,7.23
2018-12-26T21:07:43.666Z,7.30
2018-12-26T21:10:09.437Z,7.30
2018-12-26T21:12:35.202Z,7.17
2018-12-26T21:15:00.964Z,7.67
2018-12-26T21:17:26.728Z,7.27
2018-12-26T21:19:52.633Z,7.23
2018-12-26T21:22:18.378Z,8.67
2018-12-26T21:24:44.141Z,7.97
2018-12-26T21:27:09.912Z,8.80
2018-12-26T21:29:35.685Z,8.97
2018-12-26T21:32:01.553Z,8.93
2018-12-26T21:34:27.292Z,9.70
2018-12-26T21:36:53.062Z,9.37
2018-12-26T21:39:18.851Z,9.80
2018-12-26T21:41:44.617Z,9.67
2018-12-26T21:44:10.378Z,10.07
2018-12-26T21:46:36.143Z,9.70
2018-12-26T21:49:01.914Z,9.80
2018-12-26T21:51:27.694Z,11.23
2018-12-26T21:53:53.446Z,11.47
2018-12-26T21:56:19.220Z,12.40
2018-12-26T21:58:44.990Z,12.83
2018-12-26T22:01:10.812Z,13.43
2018-12-26T22:03:36.533Z,13.00
2018-12-26T22:06:02.277Z,13.60
2018-12-26T22:08:28.038Z,13.63
2018-12-26T22:10:53.818Z,13.93
2018-12-26T22:13:19.565Z,14.17
2018-12-26T22:15:45.355Z,14.73
2018-12-26T22:18:12.276Z,14.23
2018-12-26T22:20:40.074Z,15.50
2018-12-26T22:23:06.179Z,15.27
2018-12-26T22:25:32.090Z,16.57
2018-12-26T22:27:57.984Z,16.07
2018-12-26T22:30:23.740Z,16.80
2018-12-26T22:32:49.695Z,17.53
2018-12-26T22:35:15.436Z,16.70
2018-12-26T22:37:41.197Z,17.73
2018-12-26T22:40:07.151Z,16.97
2018-12-26T22:42:33.310Z,17.90
2018-12-26T22:44:59.403Z,17.87
2018-12-26T22:47:25.399Z,17.33
2018-12-26T22:49:51.292Z,17.60
2018-12-26T22:52:17.062Z,18.17
2018-12-26T22:54:49.569Z,18.97
2018-12-26T22:57:15.353Z,18.77
2018-12-26T22:59:41.114Z,18.90
2018-12-26T23:02:06.992Z,19.00
2018-12-26T23:04:33.058Z,18.13
2018-12-26T23:06:58.954Z,18.53
2018-12-26T23:09:25.081Z,18.23
2018-12-26T23:11:50.834Z,18.43
2018-12-26T23:14:16.605Z,17.87
2018-12-26T23:16:42.567Z,17.43
2018-12-26T23:19:08.334Z,17.37
2018-12-26T23:21:34.097Z,17.40
2018-12-26T23:24:00.299Z,17.40
2018-12-26T23:26:26.345Z,16.37
2018-12-26T23:28:52.337Z,17.40
2018-12-26T23:31:18.274Z,16.90
2018-12-26T23:33:44.152Z,17.60
2018-12-26T23:36:10.037Z,18.57
2018-12-26T23:38:35.807Z,19.87
2018-12-26T23:41:01.566Z,19.80
2018-12-26T23:43:27.334Z,19.67
2018-12-26T23:45:53.089Z,20.07
2018-12-26T23:48:20.300Z,20.67
2018-12-26T23:50:46.550Z,22.20
2018-12-26T23:53:12.314Z,22.60
2018-12-26T23:55:38.089Z,21.77
2018-12-26T23:58:03.856Z,24.23
